createdAt,value
2019-02-16T00:00:02.959Z,85.39
2019-02-16T00:05:03.316Z,85.41
2019-02-16T00:10:02.723Z,85.48
2019-02-16T00:15:03.099Z,85.31
2019-02-16T00:20:02.432Z,85.13
2019-02-16T00:25:02.836Z,85.01
2019-02-16T00:30:03.174Z,85.04
2019-02-16T00:35:02.478Z,85.12
2019-02-16T00:40:02.936Z,85.1
2019-02-16T00:45:03.274Z,85.12
2019-02-16T00:50:02.689Z,85.13
2019-02-16T00:55:03.012Z,85.21
2019-02-16T01:00:02.339Z,85.27
2019-02-16T01:05:02.520Z,85.31
2019-02-16T01:10:02.964Z,85.33
2019-02-16T01:15:03.376Z,85.35
2019-02-16T01:20:02.822Z,85.36
2019-02-16T01:25:03.243Z,85.38
2019-02-16T01:30:02.691Z,85.38
2019-02-16T01:35:03.076Z,85.38
2019-02-16T01:40:02.505Z,85.4
2019-02-16T01:45:02.875Z,85.42
2019-02-16T01:50:02.496Z,85.39
2019-02-16T01:55:02.850Z,85.18
2019-02-16T02:00:02.416Z,85.07
2019-02-16T02:05:02.820Z,85.06
2019-02-16T02:10:02.459Z,85.07
2019-02-16T02:15:02.900Z,85.1
2019-02-16T02:20:02.527Z,85.16
2019-02-16T02:25:03.002Z,85.24
2019-02-16T02:30:02.423Z,85.25
2019-02-16T02:35:02.857Z,85.3
2019-02-16T02:40:03.363Z,85.29
2019-02-16T02:45:02.825Z,85.37
2019-02-16T02:50:03.229Z,85.42
2019-02-16T02:55:02.672Z,85.48
2019-02-16T03:00:03.089Z,85.52
2019-02-16T03:05:02.570Z,85.52
2019-02-16T03:10:03.052Z,85.43
2019-02-16T03:15:02.510Z,85.21
2019-02-16T03:20:02.966Z,85.18
2019-02-16T03:25:02.366Z,85.19
2019-02-16T03:30:02.782Z,85.2
2019-02-16T03:35:03.219Z,85.29
2019-02-16T03:40:02.745Z,85.39
2019-02-16T03:45:03.115Z,85.46
2019-02-16T03:50:02.511Z,85.49
2019-02-16T03:55:03.031Z,85.55
2019-02-16T04:00:02.522Z,85.58
2019-02-16T04:05:02.915Z,85.62
2019-02-16T04:10:02.446Z,85.64
2019-02-16T04:15:02.891Z,85.58
2019-02-16T04:20:03.305Z,85.43
2019-02-16T04:25:02.742Z,85.27
2019-02-16T04:30:03.149Z,85.27
2019-02-16T04:35:02.565Z,85.3
2019-02-16T04:40:02.959Z,85.33
2019-02-16T04:45:03.352Z,85.43
2019-02-16T04:50:02.772Z,85.49
2019-02-16T04:55:03.123Z,85.55
2019-02-16T05:00:02.536Z,85.57
2019-02-16T05:05:02.968Z,85.61
2019-02-16T05:10:02.389Z,85.66
2019-02-16T05:15:02.744Z,85.62
2019-02-16T05:20:03.184Z,85.55
2019-02-16T05:25:02.553Z,85.37
2019-02-16T05:30:02.950Z,85.25
2019-02-16T05:35:02.488Z,85.21
2019-02-16T05:40:02.900Z,85.21
2019-02-16T05:45:03.347Z,85.21
2019-02-16T05:50:02.780Z,85.28
2019-02-16T05:55:03.224Z,85.38
2019-02-16T06:00:02.635Z,85.45
2019-02-16T06:05:03.074Z,85.47
2019-02-16T06:10:02.894Z,85.54
2019-02-16T06:15:03.238Z,85.53
2019-02-16T06:20:02.651Z,85.49
2019-02-16T06:25:03.006Z,85.38
2019-02-16T06:30:02.414Z,85.26
2019-02-16T06:35:02.768Z,85.26
2019-02-16T06:40:03.148Z,85.26
2019-02-16T06:45:02.517Z,85.3
2019-02-16T06:50:02.868Z,85.31
2019-02-16T06:55:03.300Z,85.43
2019-02-16T07:00:02.712Z,85.54
2019-02-16T07:05:03.086Z,85.6
2019-02-16T07:10:02.580Z,85.71
2019-02-16T07:15:02.931Z,85.68
2019-02-16T07:20:03.406Z,85.64
2019-02-16T07:25:06.951Z,85.48
2019-02-16T07:30:03.381Z,85.4
2019-02-16T07:35:02.753Z,85.42
2019-02-16T07:40:03.236Z,85.46
2019-02-16T07:45:02.618Z,85.49
2019-02-16T07:50:02.959Z,85.5
2019-02-16T07:55:02.388Z,85.59
2019-02-16T08:00:02.857Z,85.69
2019-02-16T08:05:03.191Z,85.79
2019-02-16T08:10:02.674Z,85.86
2019-02-16T08:15:03.024Z,85.9
2019-02-16T08:20:02.368Z,85.86
2019-02-16T08:25:02.804Z,85.72
2019-02-16T08:30:03.229Z,85.67
2019-02-16T08:35:02.636Z,85.71
2019-02-16T08:40:03.019Z,85.75
2019-02-16T08:45:02.412Z,85.88
2019-02-16T08:50:02.884Z,85.96
2019-02-16T08:55:03.292Z,86.08
2019-02-16T09:00:02.726Z,86.13
2019-02-16T09:05:03.161Z,86.18
2019-02-16T09:10:02.563Z,86.22
2019-02-16T09:15:02.143Z,86.23
2019-02-16T09:20:02.545Z,86.28
2019-02-16T09:25:02.997Z,86.37
2019-02-16T09:30:02.353Z,86.4
2019-02-16T09:35:02.762Z,86.38
2019-02-16T09:40:03.188Z,86.53
2019-02-16T09:45:02.677Z,86.46
2019-02-16T09:50:03.045Z,86.37
2019-02-16T09:55:02.481Z,86.29
2019-02-16T10:00:02.909Z,86.28
2019-02-16T10:05:03.288Z,86.13
2019-02-16T10:10:02.705Z,86.1
2019-02-16T10:15:03.116Z,86.06
2019-02-16T10:20:02.528Z,86.04
2019-02-16T10:25:02.854Z,85.94
2019-02-16T10:30:03.238Z,85.9
2019-02-16T10:35:01.780Z,85.81
2019-02-16T10:40:03.327Z,85.73
2019-02-16T10:45:02.656Z,85.6
2019-02-16T10:50:03.053Z,85.53
2019-02-16T10:55:02.480Z,85.28
2019-02-16T11:00:02.904Z,85.17
2019-02-16T11:05:03.262Z,84.91
2019-02-16T11:10:02.770Z,84.84
2019-02-16T11:15:03.215Z,84.74
2019-02-16T11:20:02.627Z,84.82
2019-02-16T11:25:02.981Z,85.01
2019-02-16T11:30:02.432Z,85.1
2019-02-16T11:35:02.839Z,85.19
2019-02-16T11:40:03.293Z,85.27
2019-02-16T11:45:01.892Z,85.34
2019-02-16T11:50:02.554Z,85.35
2019-02-16T11:55:02.992Z,85.44
2019-02-16T12:00:02.399Z,85.36
2019-02-16T12:05:02.866Z,85.37
2019-02-16T12:10:03.382Z,85.41
2019-02-16T12:15:02.790Z,85.5
2019-02-16T12:20:03.141Z,85.66
2019-02-16T12:25:05.892Z,85.73
2019-02-16T12:30:02.692Z,85.75
2019-02-16T12:35:03.231Z,85.86
2019-02-16T12:40:02.638Z,85.92
2019-02-16T12:45:03.035Z,85.92
2019-02-16T12:50:02.417Z,85.89
2019-02-16T12:55:02.793Z,85.71
2019-02-16T13:00:03.207Z,84.84
2019-02-16T13:05:02.620Z,84.37
2019-02-16T13:10:03.086Z,84.04
2019-02-16T13:15:02.493Z,84.07
2019-02-16T13:20:03.007Z,84.31
2019-02-16T13:25:02.448Z,84.2
2019-02-16T13:30:02.918Z,84.0
2019-02-16T13:35:03.301Z,83.54
2019-02-16T13:40:02.712Z,83.61
2019-02-16T13:45:03.098Z,83.65
2019-02-16T13:50:02.510Z,83.0
2019-02-16T13:55:02.953Z,83.21
2019-02-16T14:00:03.410Z,82.41
2019-02-16T14:05:02.809Z,82.47
2019-02-16T14:10:03.258Z,82.37
2019-02-16T14:15:02.677Z,81.62
2019-02-16T14:20:03.024Z,82.01
2019-02-16T14:25:02.462Z,81.52
2019-02-16T14:30:02.877Z,81.29
2019-02-16T14:35:03.268Z,81.36
2019-02-16T14:40:02.732Z,81.61
2019-02-16T14:45:03.080Z,81.6
2019-02-16T14:50:02.526Z,81.56
2019-02-16T14:55:02.946Z,81.64
2019-02-16T15:00:03.394Z,81.71
2019-02-16T15:05:02.823Z,81.68
2019-02-16T15:10:03.254Z,81.75
2019-02-16T15:15:02.668Z,81.91
2019-02-16T15:20:03.159Z,82.1
2019-02-16T15:25:02.541Z,81.97
2019-02-16T15:30:02.886Z,82.1
2019-02-16T15:35:03.324Z,82.24
2019-02-16T15:40:02.736Z,82.36
2019-02-16T15:45:03.196Z,82.48
2019-02-16T15:50:02.596Z,82.66
2019-02-16T15:55:02.950Z,82.92
2019-02-16T16:00:03.420Z,83.0
2019-02-16T16:05:02.810Z,83.1
2019-02-16T16:10:03.218Z,83.19
2019-02-16T16:15:02.582Z,83.3
2019-02-16T16:20:03.007Z,83.38
2019-02-16T16:25:02.420Z,83.48
2019-02-16T16:30:02.894Z,83.49
2019-02-16T16:35:03.319Z,83.54
2019-02-16T16:40:02.865Z,83.6
2019-02-16T16:45:03.279Z,83.73
2019-02-16T16:50:02.686Z,83.87
2019-02-16T16:55:03.144Z,84.0
2019-02-16T17:00:02.578Z,84.08
2019-02-16T17:05:03.027Z,84.17
2019-02-16T17:10:02.915Z,84.19
2019-02-16T17:15:02.455Z,83.1
2019-02-16T17:20:02.439Z,82.94
2019-02-16T17:25:04.697Z,83.4
2019-02-16T17:30:03.330Z,83.52
2019-02-16T17:35:02.724Z,83.67
2019-02-16T17:40:03.180Z,83.68
2019-02-16T17:45:02.581Z,83.78
2019-02-16T17:50:03.025Z,83.8
2019-02-16T17:55:02.397Z,83.91
2019-02-16T18:00:02.816Z,83.96
2019-02-16T18:05:03.212Z,84.02
2019-02-16T18:10:07.049Z,84.05
2019-02-16T18:15:02.449Z,84.08
2019-02-16T18:20:02.807Z,84.1
2019-02-16T18:25:03.255Z,84.1
2019-02-16T18:30:02.685Z,84.14
2019-02-16T18:35:03.048Z,84.17
2019-02-16T18:40:01.720Z,84.19
2019-02-16T18:45:03.129Z,84.22
2019-02-16T18:50:02.507Z,84.23
2019-02-16T18:55:10.545Z,84.28
2019-02-16T19:00:03.290Z,84.31
2019-02-16T19:05:02.749Z,84.35
2019-02-16T19:10:03.241Z,84.34
2019-02-16T19:15:02.700Z,84.36
2019-02-16T19:20:03.146Z,84.39
2019-02-16T19:25:02.669Z,84.43
2019-02-16T19:30:03.157Z,84.47
2019-02-16T19:35:02.568Z,84.5
2019-02-16T19:40:03.068Z,84.51
2019-02-16T19:45:02.439Z,84.56
2019-02-16T19:50:02.049Z,84.56
2019-02-16T19:55:01.695Z,84.62
2019-02-16T20:00:02.610Z,84.65
2019-02-16T20:05:03.226Z,84.71
2019-02-16T20:10:02.758Z,84.7
2019-02-16T20:15:03.198Z,84.75
2019-02-16T20:20:02.716Z,84.75
2019-02-16T20:25:03.204Z,84.76
2019-02-16T20:30:02.731Z,84.81
2019-02-16T20:35:03.217Z,84.85
2019-02-16T20:40:02.731Z,84.87
2019-02-16T20:45:03.225Z,84.95
2019-02-16T20:50:02.742Z,84.93
2019-02-16T20:55:02.291Z,84.98
2019-02-16T21:00:02.774Z,84.99
2019-02-16T21:05:03.233Z,85.03
2019-02-16T21:10:02.768Z,84.98
2019-02-16T21:15:03.244Z,85.03
2019-02-16T21:20:02.760Z,85.05
2019-02-16T21:25:03.408Z,85.08
2019-02-16T21:30:03.022Z,85.06
2019-02-16T21:35:02.416Z,85.13
2019-02-16T21:40:02.908Z,85.14
2019-02-16T21:45:03.300Z,85.11
2019-02-16T21:50:02.669Z,85.15
2019-02-16T21:55:03.161Z,85.16
2019-02-16T22:00:02.562Z,85.21
2019-02-16T22:05:03.051Z,85.2
2019-02-16T22:10:02.571Z,85.18
2019-02-16T22:15:02.977Z,85.21
2019-02-16T22:20:02.410Z,85.2
2019-02-16T22:25:02.213Z,85.23
2019-02-16T22:30:02.721Z,85.27
2019-02-16T22:35:03.114Z,85.29
2019-02-16T22:40:02.615Z,85.3
2019-02-16T22:45:02.975Z,85.36
2019-02-16T22:50:02.369Z,85.36
2019-02-16T22:55:02.854Z,85.29
2019-02-16T23:00:03.342Z,85.36
2019-02-16T23:05:02.852Z,85.35
2019-02-16T23:10:03.344Z,85.39
2019-02-16T23:15:02.741Z,85.41
2019-02-16T23:20:03.235Z,85.42
2019-02-16T23:25:02.745Z,85.36
2019-02-16T23:30:03.165Z,85.42
2019-02-16T23:35:02.520Z,85.4
2019-02-16T23:40:03.021Z,85.38
2019-02-16T23:45:02.414Z,85.4
2019-02-16T23:50:02.783Z,85.38
2019-02-16T23:55:03.263Z,85.41
